Manhattan Regional Airport Manhattan US
ICAO: KMHK
IATA: MHK
Category: Medium
Scheduled Services: Yes

Elevation: 1057 ft
TransAlt. 18000 ft.

Airport Communications:
KANSAS CITY CNTR:127.35
ASOS:119.075
CTAF:118.55
GND:121.85
WICHITA RDO:122.65
TWR:118.55

KMHK Zoom In..

Runways:

(A) RW 03 length 7000 ft width 150 ft
ILS 111.30 / hdg 36

(B) RW 13 length 5000 ft width 75 ft
---- / hdg 138

(C) RW 21 length 7000 ft width 150 ft
---- / hdg 216

(D) RW 31 length 5000 ft width 75 ft
---- / hdg 318

Location; KMHK
Day. 19 / Time. 02.52 Zulu
* Altimeter: 29.90
* Temperature: 28° c. 82.4°f.
* Wind from: 360° Speed 03 kn.
Dewpoint: 23° c.
Visibility: 10 Statute Miles.
Clouds: Broken 5000 ft.
Clouds: Overcast 11000 ft.

KMHK 190252Z AUTO 36003KT 10SM BKN050 OVC110 28/23 A2990 RMK AO2 SLP114 T02780228 53005


Wind From 360°
Speed 03 kn.

 
 
jpsmedia.com for Web Design worldairports.se 2018   terms of use